Coal City, Indiana
Current Conditions -  °F | °C
As of 1:37 AM on Friday 19 Dec 2014 (Local Time) from KHUF Reporting Station
Broken Clouds Broken Clouds  
Wind Chill: 25°   Ceiling: 1500
Heat Index: 25°   Visibility: 9mi
Dew Point: 22°   Wind: 3mph
Humidity: 88%   Direction: 310°NW
Pressure: 30.28"   Gusts: NA
Location:  39.23°N, 87.05°W
Report Text: KHUF 190637Z 31003KT 9SM BKN015 M04/M06 A3028 RMK AO2 T10391056
Loading
Personal Weather Stations






























Interactive Weather Map New forecast layout! Learn more

10-Day Weather Forecast

Advertisements
Track Severe Weather on mobile